createdAt,value
2023-03-17T00:01:42.369Z,100696.22
2023-03-17T00:04:12.544Z,100685.19
2023-03-17T00:06:40.333Z,100681.88
2023-03-17T00:09:14.792Z,100681.19
2023-03-17T00:11:42.263Z,100685.66
2023-03-17T00:14:09.243Z,100684.06
2023-03-17T00:16:42.320Z,100679.66
2023-03-17T00:19:17.157Z,100675.16
2023-03-17T00:21:43.613Z,100681.13
2023-03-17T00:24:15.036Z,100688.97
2023-03-17T00:26:42.561Z,100690.75
2023-03-17T00:29:10.165Z,100691.59
2023-03-17T00:31:38.005Z,100697.78
2023-03-17T00:34:04.685Z,100698.75
2023-03-17T00:36:33.166Z,100688.19
2023-03-17T00:38:59.988Z,100674.47
2023-03-17T00:41:27.373Z,100664.88
2023-03-17T00:43:54.064Z,100670.38
2023-03-17T00:46:23.585Z,100670.16
2023-03-17T00:48:50.090Z,100674.63
2023-03-17T00:51:16.677Z,100677.28
2023-03-17T00:53:43.763Z,100677.88
2023-03-17T00:56:14.497Z,100681.25
2023-03-17T00:58:42.115Z,100678.63
2023-03-17T01:01:08.959Z,100671.69
2023-03-17T01:03:35.737Z,100683.88
2023-03-17T01:06:03.026Z,100679.59
2023-03-17T01:08:30.192Z,100683.22
2023-03-17T01:10:56.964Z,100667.75
2023-03-17T01:13:24.268Z,100669.56
2023-03-17T01:15:52.032Z,100667.97
2023-03-17T01:18:21.293Z,100667.84
2023-03-17T01:20:49.764Z,100668.84
2023-03-17T01:23:16.905Z,100661.88
2023-03-17T01:25:44.587Z,100667.00
2023-03-17T01:28:16.782Z,100662.72
2023-03-17T01:30:43.775Z,100665.16
2023-03-17T01:33:11.917Z,100652.22
2023-03-17T01:35:39.337Z,100650.31
2023-03-17T01:38:06.277Z,100645.91
2023-03-17T01:40:35.069Z,100636.25
2023-03-17T01:43:10.586Z,100634.34
2023-03-17T01:46:11.769Z,100637.28
2023-03-17T01:48:42.177Z,100648.66
2023-03-17T01:51:12.350Z,100642.34
2023-03-17T01:53:39.753Z,100636.16
2023-03-17T01:56:07.907Z,100634.50
2023-03-17T01:58:34.663Z,100634.50
2023-03-17T02:01:01.653Z,100626.50
2023-03-17T02:03:29.798Z,100634.28
2023-03-17T02:05:57.896Z,100629.16
2023-03-17T02:08:24.646Z,100622.97
2023-03-17T02:10:52.422Z,100631.94
2023-03-17T02:13:19.067Z,100623.72
2023-03-17T02:15:51.174Z,100629.28
2023-03-17T02:18:20.267Z,100621.94
2023-03-17T02:20:46.750Z,100621.31
2023-03-17T02:23:17.204Z,100621.56
2023-03-17T02:25:45.875Z,100617.09
2023-03-17T02:28:16.206Z,100623.00
2023-03-17T02:30:43.730Z,100620.63
2023-03-17T02:33:11.968Z,100620.72
2023-03-17T02:35:39.938Z,100625.97
2023-03-17T02:38:06.613Z,100618.00
2023-03-17T02:40:33.184Z,100623.13
2023-03-17T02:43:00.657Z,100622.88
2023-03-17T02:45:27.590Z,100614.16
2023-03-17T02:47:55.191Z,100617.72
2023-03-17T02:50:24.022Z,100625.59
2023-03-17T02:52:50.775Z,100610.25
2023-03-17T02:55:18.807Z,100611.00
2023-03-17T02:57:45.586Z,100618.09
2023-03-17T03:00:14.223Z,100606.56
2023-03-17T03:02:41.445Z,100621.63
2023-03-17T03:05:08.890Z,100632.88
2023-03-17T03:07:36.408Z,100634.38
2023-03-17T03:10:03.130Z,100629.91
2023-03-17T03:12:29.749Z,100619.59
2023-03-17T03:14:56.228Z,100609.31
2023-03-17T03:17:23.069Z,100609.81
2023-03-17T03:19:49.737Z,100626.94
2023-03-17T03:22:16.445Z,100626.09
2023-03-17T03:24:42.986Z,100621.59
2023-03-17T03:27:09.800Z,100634.56
2023-03-17T03:29:36.509Z,100634.50
2023-03-17T03:32:03.097Z,100635.97
2023-03-17T03:34:29.711Z,100634.00
2023-03-17T03:36:56.278Z,100626.72
2023-03-17T03:39:22.820Z,100648.63
2023-03-17T03:41:49.412Z,100650.13
2023-03-17T03:44:16.146Z,100650.13
2023-03-17T03:46:42.803Z,100660.00
2023-03-17T03:49:09.371Z,100662.47
2023-03-17T03:51:36.045Z,100658.41
2023-03-17T03:54:02.776Z,100660.41
2023-03-17T03:56:29.321Z,100651.78
2023-03-17T03:58:56.478Z,100643.91
2023-03-17T04:01:23.055Z,100644.34
2023-03-17T04:03:49.602Z,100651.63
2023-03-17T04:06:16.351Z,100644.50
2023-03-17T04:08:42.884Z,100652.50
2023-03-17T04:11:09.528Z,100649.94
2023-03-17T04:13:36.144Z,100656.91
2023-03-17T04:16:03.392Z,100660.44
2023-03-17T04:18:31.637Z,100653.34
2023-03-17T04:20:58.227Z,100645.28
2023-03-17T04:23:24.857Z,100648.97
2023-03-17T04:25:52.835Z,100647.16
2023-03-17T04:28:20.516Z,100638.34
2023-03-17T04:30:47.121Z,100641.88
2023-03-17T04:33:13.789Z,100665.41
2023-03-17T04:35:40.797Z,100667.28
2023-03-17T04:38:07.326Z,100656.84
2023-03-17T04:40:33.833Z,100645.19
2023-03-17T04:43:02.441Z,100646.16
2023-03-17T04:45:30.083Z,100658.56
2023-03-17T04:47:56.624Z,100658.47
2023-03-17T04:50:23.281Z,100633.72
2023-03-17T04:52:49.802Z,100615.00
2023-03-17T04:55:16.570Z,100633.94
2023-03-17T04:57:44.189Z,100621.34
2023-03-17T05:00:12.658Z,100613.72
2023-03-17T05:02:39.277Z,100612.28
2023-03-17T05:05:05.898Z,100599.84
2023-03-17T05:07:34.129Z,100579.56
2023-03-17T05:10:00.835Z,100574.34
2023-03-17T05:12:27.723Z,100596.00
2023-03-17T05:14:54.261Z,100599.88
2023-03-17T05:17:20.860Z,100617.66
2023-03-17T05:19:47.773Z,100628.53
2023-03-17T05:22:14.278Z,100644.84
2023-03-17T05:24:40.776Z,100629.78
2023-03-17T05:27:07.341Z,100625.94
2023-03-17T05:29:33.924Z,100625.00
2023-03-17T05:32:00.426Z,100614.28
2023-03-17T05:34:27.037Z,100589.25
2023-03-17T05:36:53.624Z,100581.13
2023-03-17T05:39:20.118Z,100626.09
2023-03-17T05:41:47.208Z,100626.59
2023-03-17T05:44:14.130Z,100621.66
2023-03-17T05:46:41.009Z,100638.66
2023-03-17T05:49:07.911Z,100627.44
2023-03-17T05:51:36.835Z,100616.66
2023-03-17T05:54:03.922Z,100606.75
2023-03-17T05:56:33.698Z,100602.13
2023-03-17T05:59:01.687Z,100607.31
2023-03-17T06:01:29.085Z,100601.97
2023-03-17T06:03:55.797Z,100605.75
2023-03-17T06:06:22.582Z,100622.38
2023-03-17T06:08:49.174Z,100621.78
2023-03-17T06:11:15.857Z,100617.44
2023-03-17T06:13:42.355Z,100625.16
2023-03-17T06:16:09.705Z,100637.59
2023-03-17T06:18:36.784Z,100632.22
2023-03-17T06:21:03.341Z,100633.91
2023-03-17T06:23:29.850Z,100627.13
2023-03-17T06:25:56.921Z,100619.09
2023-03-17T06:28:23.409Z,100619.09
2023-03-17T06:30:49.926Z,100622.50
2023-03-17T06:33:18.349Z,100623.34
2023-03-17T06:35:44.972Z,100621.75
2023-03-17T06:38:11.560Z,100624.38
2023-03-17T06:40:38.262Z,100616.50
2023-03-17T06:43:04.962Z,100614.66
2023-03-17T06:45:33.099Z,100624.50
2023-03-17T06:47:59.750Z,100622.88
2023-03-17T06:50:27.020Z,100634.13
2023-03-17T06:52:53.506Z,100629.44
2023-03-17T06:55:21.317Z,100631.88
2023-03-17T06:57:49.819Z,100631.22
2023-03-17T07:00:18.853Z,100635.94
2023-03-17T07:02:45.893Z,100641.22
2023-03-17T07:05:13.956Z,100635.34
2023-03-17T07:07:41.022Z,100646.50
2023-03-17T07:10:10.353Z,100636.44
2023-03-17T07:12:37.644Z,100633.50
2023-03-17T07:15:04.652Z,100626.66
2023-03-17T07:17:31.169Z,100632.22
2023-03-17T07:19:57.772Z,100640.69
2023-03-17T07:22:24.355Z,100645.34
2023-03-17T07:24:51.930Z,100650.56
2023-03-17T07:27:20.218Z,100669.75
2023-03-17T07:29:48.109Z,100658.84
2023-03-17T07:32:15.343Z,100655.06
2023-03-17T07:34:41.907Z,100649.72
2023-03-17T07:37:08.506Z,100655.25
2023-03-17T07:39:35.336Z,100646.19
2023-03-17T07:42:02.268Z,100645.56
2023-03-17T07:44:29.520Z,100636.28
2023-03-17T07:46:56.622Z,100649.34
2023-03-17T07:49:40.033Z,100648.00
2023-03-17T07:52:08.546Z,100641.34
2023-03-17T07:54:35.796Z,100637.16
2023-03-17T07:57:02.441Z,100642.31
2023-03-17T07:59:29.039Z,100640.72
2023-03-17T08:01:57.918Z,100637.28
2023-03-17T08:04:24.553Z,100647.25
2023-03-17T08:06:51.160Z,100652.63
2023-03-17T08:09:17.740Z,100651.34
2023-03-17T08:11:44.334Z,100650.84
2023-03-17T08:14:11.804Z,100652.25
2023-03-17T08:16:38.402Z,100638.78
2023-03-17T08:19:06.242Z,100642.56
2023-03-17T08:21:32.854Z,100652.81
2023-03-17T08:23:59.729Z,100643.78
2023-03-17T08:26:27.029Z,100637.66
2023-03-17T08:28:53.837Z,100637.06
2023-03-17T08:31:21.660Z,100645.00
2023-03-17T08:33:53.300Z,100641.75
2023-03-17T08:36:20.767Z,100650.63
2023-03-17T08:38:48.028Z,100658.94
2023-03-17T08:41:18.214Z,100654.28
2023-03-17T08:43:45.774Z,100655.44
2023-03-17T08:46:19.737Z,100661.03
2023-03-17T08:48:48.181Z,100656.00
2023-03-17T08:51:18.088Z,100656.66
2023-03-17T08:53:45.916Z,100669.56
2023-03-17T08:56:12.751Z,100676.28
2023-03-17T08:58:40.529Z,100689.72
2023-03-17T09:01:07.360Z,100683.63
2023-03-17T09:03:34.272Z,100685.59
2023-03-17T09:06:00.857Z,100687.13
2023-03-17T09:08:28.066Z,100681.78
2023-03-17T09:10:54.813Z,100693.31
2023-03-17T09:13:22.713Z,100694.44
2023-03-17T09:15:51.735Z,100697.88
2023-03-17T09:18:21.915Z,100694.44
2023-03-17T09:20:48.832Z,100699.75
2023-03-17T09:23:15.984Z,100702.41
2023-03-17T09:25:42.877Z,100707.31
2023-03-17T09:28:11.772Z,100702.22
2023-03-17T09:30:41.310Z,100698.41
2023-03-17T09:33:14.670Z,100706.72
2023-03-17T09:35:41.540Z,100709.66
2023-03-17T09:38:08.766Z,100710.91
2023-03-17T09:40:48.510Z,100711.19
2023-03-17T09:43:24.840Z,100718.53
2023-03-17T09:45:51.661Z,100731.47
2023-03-17T09:48:24.448Z,100725.22
2023-03-17T09:50:57.567Z,100725.41
2023-03-17T09:53:28.336Z,100735.16
2023-03-17T09:55:58.915Z,100739.41
2023-03-17T09:58:33.655Z,100727.34
2023-03-17T10:01:01.444Z,100741.81
2023-03-17T10:03:27.995Z,100747.41
2023-03-17T10:05:59.679Z,100738.56
2023-03-17T10:08:37.949Z,100736.13
2023-03-17T10:11:15.782Z,100726.13
2023-03-17T10:13:48.696Z,100725.91
2023-03-17T10:16:20.957Z,100734.88
2023-03-17T10:18:54.469Z,100739.88
2023-03-17T10:21:24.466Z,100737.34
2023-03-17T10:23:51.156Z,100723.22
2023-03-17T10:26:30.566Z,100740.28
2023-03-17T10:28:57.413Z,100719.47
2023-03-17T10:31:29.953Z,100726.31
2023-03-17T10:33:58.026Z,100731.28
2023-03-17T10:36:39.356Z,100728.50
2023-03-17T10:39:08.147Z,100723.38
2023-03-17T10:41:41.041Z,100721.38
2023-03-17T10:44:22.375Z,100718.19
2023-03-17T10:46:56.308Z,100728.94
2023-03-17T10:49:25.032Z,100742.75
2023-03-17T10:51:53.943Z,100725.16
2023-03-17T10:54:21.555Z,100717.22
2023-03-17T10:56:50.456Z,100720.06
2023-03-17T10:59:28.313Z,100705.03
2023-03-17T11:01:59.797Z,100700.78
2023-03-17T11:04:26.469Z,100711.19
2023-03-17T11:06:56.082Z,100702.06
2023-03-17T11:09:23.524Z,100691.63
2023-03-17T11:12:01.617Z,100685.56
2023-03-17T11:14:28.408Z,100677.88
2023-03-17T11:16:54.905Z,100676.97
2023-03-17T11:19:29.794Z,100666.06
2023-03-17T11:22:10.367Z,100658.56
2023-03-17T11:24:55.732Z,100647.06
2023-03-17T11:27:32.657Z,100642.16
2023-03-17T11:30:21.742Z,100638.22
2023-03-17T11:32:58.298Z,100634.75
2023-03-17T11:35:41.380Z,100620.06
2023-03-17T11:38:29.834Z,100613.38
2023-03-17T11:41:14.780Z,100626.56
2023-03-17T11:43:59.803Z,100643.00
2023-03-17T11:47:04.130Z,100641.97
2023-03-17T11:49:38.999Z,100639.28
2023-03-17T11:52:22.013Z,100641.72
2023-03-17T11:54:56.648Z,100650.81
2023-03-17T11:57:43.635Z,100653.78
2023-03-17T12:00:22.712Z,100653.75
2023-03-17T12:02:56.311Z,100656.75
2023-03-17T12:05:25.315Z,100670.31
2023-03-17T12:07:55.741Z,100669.00
2023-03-17T12:10:34.091Z,100688.44
2023-03-17T12:13:07.139Z,100680.66
2023-03-17T12:15:38.402Z,100684.03
2023-03-17T12:18:27.927Z,100679.72
2023-03-17T12:21:07.663Z,100689.28
2023-03-17T12:23:54.317Z,100685.81
2023-03-17T12:26:35.382Z,100688.25
2023-03-17T12:29:21.980Z,100685.38
2023-03-17T12:31:55.276Z,100697.06
2023-03-17T12:34:43.310Z,100678.72
2023-03-17T12:37:09.941Z,100672.16
2023-03-17T12:39:37.375Z,100685.66
2023-03-17T12:42:25.150Z,100707.66
2023-03-17T12:44:57.549Z,100706.00
2023-03-17T12:47:39.384Z,100691.91
2023-03-17T12:50:18.224Z,100693.91
2023-03-17T12:53:22.346Z,100676.28
2023-03-17T12:55:51.309Z,100671.53
2023-03-17T12:58:29.952Z,100678.09
2023-03-17T13:01:08.904Z,100677.03
2023-03-17T13:03:38.693Z,100672.81
2023-03-17T13:06:08.672Z,100672.09
2023-03-17T13:08:39.385Z,100670.13
2023-03-17T13:11:29.480Z,100667.63
2023-03-17T13:14:15.402Z,100656.13
2023-03-17T13:16:46.865Z,100644.69
2023-03-17T13:19:25.014Z,100632.16
2023-03-17T13:22:01.203Z,100631.97
2023-03-17T13:24:42.687Z,100615.47
2023-03-17T13:27:12.874Z,100620.72
2023-03-17T13:29:43.264Z,100613.72
2023-03-17T13:32:15.970Z,100620.63
2023-03-17T13:35:01.137Z,100618.91
2023-03-17T13:37:33.162Z,100624.56
2023-03-17T13:40:11.083Z,100618.94
2023-03-17T13:43:03.215Z,100625.59
2023-03-17T13:45:37.453Z,100625.97
2023-03-17T13:48:22.483Z,100611.19
2023-03-17T13:50:57.302Z,100606.34
2023-03-17T13:53:27.728Z,100602.56
2023-03-17T13:56:24.955Z,100610.44
2023-03-17T13:59:06.688Z,100598.81
2023-03-17T14:02:16.500Z,100595.00
2023-03-17T14:04:52.732Z,100588.19
2023-03-17T14:07:23.093Z,100591.88
2023-03-17T14:09:53.392Z,100589.78
2023-03-17T14:12:26.358Z,100588.84
2023-03-17T14:15:07.642Z,100579.22
2023-03-17T14:17:45.252Z,100573.34
2023-03-17T14:20:18.557Z,100566.44
2023-03-17T14:22:56.761Z,100567.56
2023-03-17T14:25:26.306Z,100561.47
2023-03-17T14:27:55.004Z,100568.38
2023-03-17T14:30:24.898Z,100567.19
2023-03-17T14:32:59.028Z,100566.84
2023-03-17T14:35:30.106Z,100563.00
2023-03-17T14:37:56.857Z,100560.88
2023-03-17T14:40:26.281Z,100555.97
2023-03-17T14:42:53.003Z,100562.78
2023-03-17T14:45:46.259Z,100556.66
2023-03-17T14:48:14.814Z,100556.78
2023-03-17T14:50:51.064Z,100554.22
2023-03-17T14:53:17.798Z,100559.44
2023-03-17T14:55:44.370Z,100555.91
2023-03-17T14:58:21.812Z,100557.47
2023-03-17T15:00:55.594Z,100561.50
2023-03-17T15:03:23.677Z,100551.00
2023-03-17T15:05:51.102Z,100545.72
2023-03-17T15:08:36.581Z,100545.28
2023-03-17T15:11:04.496Z,100554.47
2023-03-17T15:13:34.795Z,100552.88
2023-03-17T15:16:17.883Z,100549.13
2023-03-17T15:18:44.990Z,100554.81
2023-03-17T15:21:34.825Z,100551.16
2023-03-17T15:24:44.189Z,100556.25
2023-03-17T15:27:18.147Z,100543.97
2023-03-17T15:29:45.827Z,100542.34
2023-03-17T15:32:16.582Z,100549.00
2023-03-17T15:34:43.304Z,100547.94
2023-03-17T15:37:15.521Z,100550.03
2023-03-17T15:39:42.228Z,100540.25
2023-03-17T15:42:08.993Z,100541.94
2023-03-17T15:44:35.787Z,100544.63
2023-03-17T15:47:02.684Z,100546.97
2023-03-17T15:49:30.360Z,100551.53
2023-03-17T15:51:56.864Z,100551.06
2023-03-17T15:54:23.416Z,100550.59
2023-03-17T15:56:49.951Z,100551.09
2023-03-17T15:59:16.625Z,100554.31
2023-03-17T16:01:43.253Z,100549.94
2023-03-17T16:04:10.702Z,100553.06
2023-03-17T16:06:37.313Z,100559.53
2023-03-17T16:09:07.072Z,100559.94
2023-03-17T16:11:33.584Z,100565.94
2023-03-17T16:14:00.214Z,100560.50
2023-03-17T16:16:30.386Z,100556.47
2023-03-17T16:18:57.820Z,100558.19
2023-03-17T16:21:24.420Z,100558.69
2023-03-17T16:23:51.083Z,100560.31
2023-03-17T16:26:17.949Z,100562.38
2023-03-17T16:28:45.919Z,100561.81
2023-03-17T16:31:32.834Z,100554.16
2023-03-17T16:33:59.425Z,100562.63
2023-03-17T16:36:26.496Z,100565.53
2023-03-17T16:38:53.441Z,100562.63
2023-03-17T16:41:22.246Z,100565.78
2023-03-17T16:43:55.239Z,100566.59
2023-03-17T16:46:22.068Z,100567.72
2023-03-17T16:48:50.056Z,100564.50
2023-03-17T16:51:17.062Z,100567.06
2023-03-17T16:53:43.968Z,100561.81
2023-03-17T16:56:15.558Z,100558.72
2023-03-17T16:58:42.176Z,100566.66
2023-03-17T17:01:18.205Z,100562.06
2023-03-17T17:03:45.426Z,100565.09
2023-03-17T17:06:14.404Z,100562.63
2023-03-17T17:08:44.840Z,100561.88
2023-03-17T17:11:15.562Z,100562.72
2023-03-17T17:13:43.723Z,100573.50
2023-03-17T17:16:34.086Z,100570.22
2023-03-17T17:19:01.272Z,100577.56
2023-03-17T17:21:28.130Z,100574.59
2023-03-17T17:23:55.170Z,100571.53
2023-03-17T17:26:22.560Z,100586.16
2023-03-17T17:28:49.199Z,100578.88
2023-03-17T17:31:16.205Z,100579.19
2023-03-17T17:33:42.774Z,100590.81
2023-03-17T17:36:14.806Z,100585.59
2023-03-17T17:38:41.537Z,100577.06
2023-03-17T17:41:09.707Z,100576.97
2023-03-17T17:43:36.177Z,100587.16
2023-03-17T17:46:02.731Z,100584.94
2023-03-17T17:48:29.592Z,100581.09
2023-03-17T17:50:57.328Z,100573.00
2023-03-17T17:53:24.407Z,100582.06
2023-03-17T17:55:51.783Z,100583.88
2023-03-17T17:58:21.565Z,100597.97
2023-03-17T18:00:48.897Z,100592.41
2023-03-17T18:03:15.993Z,100602.53
2023-03-17T18:05:42.700Z,100594.84
2023-03-17T18:08:11.140Z,100598.34
2023-03-17T18:10:37.663Z,100600.91
2023-03-17T18:13:05.480Z,100597.72
2023-03-17T18:15:32.114Z,100595.28
2023-03-17T18:17:58.740Z,100613.50
2023-03-17T18:20:26.041Z,100609.53
2023-03-17T18:22:52.879Z,100613.25
2023-03-17T18:25:20.014Z,100607.38
2023-03-17T18:27:47.646Z,100612.41
2023-03-17T18:30:28.857Z,100609.94
2023-03-17T18:33:00.549Z,100608.63
2023-03-17T18:35:28.827Z,100621.72
2023-03-17T18:37:55.847Z,100634.94
2023-03-17T18:40:22.403Z,100622.78
2023-03-17T18:42:49.002Z,100628.38
2023-03-17T18:45:16.558Z,100632.03
2023-03-17T18:47:43.234Z,100624.16
2023-03-17T18:50:12.997Z,100622.84
2023-03-17T18:52:41.270Z,100630.53
2023-03-17T18:55:08.778Z,100628.69
2023-03-17T18:57:35.751Z,100625.41
2023-03-17T19:00:02.313Z,100629.97
2023-03-17T19:02:29.144Z,100629.59
2023-03-17T19:04:56.937Z,100626.41
2023-03-17T19:07:23.614Z,100619.38
2023-03-17T19:09:50.183Z,100620.78
2023-03-17T19:12:16.909Z,100624.59
2023-03-17T19:14:43.822Z,100618.63
2023-03-17T19:17:10.724Z,100622.81
2023-03-17T19:19:37.486Z,100638.28
2023-03-17T19:22:06.213Z,100638.09
2023-03-17T19:24:35.421Z,100637.78
2023-03-17T19:27:02.415Z,100638.28
2023-03-17T19:29:29.072Z,100633.75
2023-03-17T19:31:55.704Z,100632.16
2023-03-17T19:34:23.292Z,100634.44
2023-03-17T19:36:50.302Z,100646.38
2023-03-17T19:39:17.247Z,100642.03
2023-03-17T19:41:43.828Z,100646.31
2023-03-17T19:44:10.965Z,100637.88
2023-03-17T19:46:38.031Z,100633.63
2023-03-17T19:49:05.413Z,100625.53
2023-03-17T19:51:33.189Z,100640.16
2023-03-17T19:53:59.940Z,100648.78
2023-03-17T19:56:27.853Z,100648.03
2023-03-17T19:58:54.846Z,100647.16
2023-03-17T20:01:22.269Z,100637.97
2023-03-17T20:03:48.961Z,100644.50
2023-03-17T20:06:15.740Z,100642.16
2023-03-17T20:08:43.327Z,100652.56
2023-03-17T20:11:11.530Z,100653.88
2023-03-17T20:13:38.425Z,100657.63
2023-03-17T20:16:06.297Z,100663.66
2023-03-17T20:18:33.698Z,100666.44
2023-03-17T20:21:00.633Z,100670.44
2023-03-17T20:23:27.308Z,100671.94
2023-03-17T20:25:53.993Z,100667.84
2023-03-17T20:28:21.627Z,100679.19
2023-03-17T20:30:49.346Z,100685.69
2023-03-17T20:33:16.501Z,100691.44
2023-03-17T20:35:46.756Z,100687.25
2023-03-17T20:38:14.594Z,100687.44
2023-03-17T20:40:42.102Z,100691.94
2023-03-17T20:43:09.447Z,100696.72
2023-03-17T20:45:37.014Z,100704.16
2023-03-17T20:48:06.075Z,100705.44
2023-03-17T20:50:34.516Z,100708.84
2023-03-17T20:53:01.663Z,100725.69
2023-03-17T20:55:28.839Z,100724.91
2023-03-17T20:57:58.666Z,100723.53
2023-03-17T21:00:26.215Z,100725.22
2023-03-17T21:02:53.277Z,100724.47
2023-03-17T21:05:23.136Z,100727.28
2023-03-17T21:07:51.256Z,100719.78
2023-03-17T21:10:18.224Z,100720.09
2023-03-17T21:12:44.862Z,100721.19
2023-03-17T21:15:12.876Z,100733.69
2023-03-17T21:17:39.522Z,100726.94
2023-03-17T21:20:07.531Z,100725.53
2023-03-17T21:22:34.438Z,100728.09
2023-03-17T21:25:01.277Z,100718.34
2023-03-17T21:27:29.067Z,100716.81
2023-03-17T21:29:55.602Z,100718.78
2023-03-17T21:32:22.795Z,100731.47
2023-03-17T21:34:49.328Z,100724.69
2023-03-17T21:37:18.333Z,100729.00
2023-03-17T21:39:45.811Z,100735.22
2023-03-17T21:42:12.484Z,100736.94
2023-03-17T21:44:39.493Z,100728.91
2023-03-17T21:47:06.074Z,100727.19
2023-03-17T21:49:32.627Z,100733.34
2023-03-17T21:51:59.261Z,100733.53
2023-03-17T21:54:25.774Z,100735.28
2023-03-17T21:56:52.799Z,100732.91
2023-03-17T21:59:21.028Z,100732.13
2023-03-17T22:01:47.795Z,100726.28
2023-03-17T22:04:14.339Z,100731.88
2023-03-17T22:06:41.256Z,100730.34
2023-03-17T22:09:08.672Z,100733.03
2023-03-17T22:11:35.404Z,100733.28
2023-03-17T22:14:02.012Z,100745.59
2023-03-17T22:16:28.844Z,100750.50
2023-03-17T22:18:55.411Z,100753.38
2023-03-17T22:21:23.501Z,100759.00
2023-03-17T22:23:50.066Z,100758.34
2023-03-17T22:26:21.763Z,100757.03
2023-03-17T22:28:49.718Z,100760.06
2023-03-17T22:31:19.263Z,100754.34
2023-03-17T22:33:47.094Z,100756.03
2023-03-17T22:36:13.694Z,100758.53
2023-03-17T22:38:40.327Z,100750.19
2023-03-17T22:41:13.584Z,100753.75
2023-03-17T22:43:41.688Z,100753.13
2023-03-17T22:46:09.287Z,100752.50
2023-03-17T22:48:36.622Z,100756.16
2023-03-17T22:51:05.765Z,100765.31
2023-03-17T22:53:32.936Z,100759.94
2023-03-17T22:56:00.233Z,100766.97
2023-03-17T22:58:27.453Z,100766.22
2023-03-17T23:00:54.522Z,100758.00
2023-03-17T23:03:21.282Z,100761.00
2023-03-17T23:05:49.980Z,100757.72
2023-03-17T23:08:18.924Z,100752.50
2023-03-17T23:10:46.151Z,100751.75
2023-03-17T23:13:12.693Z,100744.16
2023-03-17T23:15:39.225Z,100753.19
2023-03-17T23:18:06.048Z,100750.59
2023-03-17T23:20:33.164Z,100741.03
2023-03-17T23:22:59.909Z,100740.31
2023-03-17T23:25:26.617Z,100741.69
2023-03-17T23:27:53.142Z,100741.09
2023-03-17T23:30:19.725Z,100750.81
2023-03-17T23:32:46.807Z,100757.94
2023-03-17T23:35:14.177Z,100754.59
2023-03-17T23:37:41.651Z,100756.38
2023-03-17T23:40:10.810Z,100754.00
2023-03-17T23:42:38.009Z,100760.44
2023-03-17T23:45:05.138Z,100764.06
2023-03-17T23:47:31.686Z,100766.84
2023-03-17T23:49:58.182Z,100761.69
2023-03-17T23:52:24.687Z,100763.44
2023-03-17T23:54:51.216Z,100765.94
2023-03-17T23:57:17.702Z,100765.03
2023-03-17T23:59:44.324Z,100764.00
